sensor_id;sensor_type;location;lat;lon;timestamp;temperature;humidity
15713;DHT22;7957;51.608;6.916;2023-07-20T00:01:45;18.50;99.90
15713;DHT22;7957;51.608;6.916;2023-07-20T00:04:14;18.50;99.90
15713;DHT22;7957;51.608;6.916;2023-07-20T00:06:43;18.50;99.90
15713;DHT22;7957;51.608;6.916;2023-07-20T00:09:10;18.50;1.00
15713;DHT22;7957;51.608;6.916;2023-07-20T00:11:38;18.50;1.00
15713;DHT22;7957;51.608;6.916;2023-07-20T00:14:07;18.50;1.00
15713;DHT22;7957;51.608;6.916;2023-07-20T00:16:34;18.50;1.00
15713;DHT22;7957;51.608;6.916;2023-07-20T00:19:02;18.50;1.00
15713;DHT22;7957;51.608;6.916;2023-07-20T00:21:31;18.50;1.00
15713;DHT22;7957;51.608;6.916;2023-07-20T00:24:00;18.50;1.00
15713;DHT22;7957;51.608;6.916;2023-07-20T00:26:26;18.50;1.00
15713;DHT22;7957;51.608;6.916;2023-07-20T00:28:53;18.50;1.00
15713;DHT22;7957;51.608;6.916;2023-07-20T00:31:20;18.50;1.00
15713;DHT22;7957;51.608;6.916;2023-07-20T00:33:47;18.50;1.00
15713;DHT22;7957;51.608;6.916;2023-07-20T00:36:14;18.40;1.00
15713;DHT22;7957;51.608;6.916;2023-07-20T00:38:42;18.40;1.00
15713;DHT22;7957;51.608;6.916;2023-07-20T00:41:10;18.40;1.00
15713;DHT22;7957;51.608;6.916;2023-07-20T00:43:38;18.40;1.00
15713;DHT22;7957;51.608;6.916;2023-07-20T00:46:05;18.50;1.00
15713;DHT22;7957;51.608;6.916;2023-07-20T00:48:32;18.50;1.00
15713;DHT22;7957;51.608;6.916;2023-07-20T00:51:00;18.40;1.00
15713;DHT22;7957;51.608;6.916;2023-07-20T00:53:28;18.40;1.00
15713;DHT22;7957;51.608;6.916;2023-07-20T00:55:55;18.40;1.00
15713;DHT22;7957;51.608;6.916;2023-07-20T00:58:24;18.40;1.00
15713;DHT22;7957;51.608;6.916;2023-07-20T01:00:51;18.40;1.00
15713;DHT22;7957;51.608;6.916;2023-07-20T01:03:18;18.40;1.00
15713;DHT22;7957;51.608;6.916;2023-07-20T01:05:54;18.40;1.00
15713;DHT22;7957;51.608;6.916;2023-07-20T01:08:27;18.40;1.00
15713;DHT22;7957;51.608;6.916;2023-07-20T01:11:01;18.40;1.00
15713;DHT22;7957;51.608;6.916;2023-07-20T01:13:32;18.40;1.00
15713;DHT22;7957;51.608;6.916;2023-07-20T01:16:01;18.40;1.00
15713;DHT22;7957;51.608;6.916;2023-07-20T01:18:28;18.40;1.00
15713;DHT22;7957;51.608;6.916;2023-07-20T01:20:59;18.30;1.00
15713;DHT22;7957;51.608;6.916;2023-07-20T01:23:53;18.30;1.00
15713;DHT22;7957;51.608;6.916;2023-07-20T01:26:38;18.30;1.00
15713;DHT22;7957;51.608;6.916;2023-07-20T01:29:21;18.30;1.00
15713;DHT22;7957;51.608;6.916;2023-07-20T01:31:52;18.30;12.00
15713;DHT22;7957;51.608;6.916;2023-07-20T01:34:20;18.30;8.80
15713;DHT22;7957;51.608;6.916;2023-07-20T01:36:50;18.30;20.90
15713;DHT22;7957;51.608;6.916;2023-07-20T01:39:19;18.20;26.50
15713;DHT22;7957;51.608;6.916;2023-07-20T01:41:47;18.10;25.30
15713;DHT22;7957;51.608;6.916;2023-07-20T01:44:14;18.20;90.70
15713;DHT22;7957;51.608;6.916;2023-07-20T01:46:41;18.20;97.20
15713;DHT22;7957;51.608;6.916;2023-07-20T01:49:09;18.20;99.90
15713;DHT22;7957;51.608;6.916;2023-07-20T01:51:36;18.10;99.90
15713;DHT22;7957;51.608;6.916;2023-07-20T01:54:03;18.10;99.90
15713;DHT22;7957;51.608;6.916;2023-07-20T01:56:30;18.10;99.90
15713;DHT22;7957;51.608;6.916;2023-07-20T01:58:57;18.10;99.90
15713;DHT22;7957;51.608;6.916;2023-07-20T02:01:23;18.00;99.90
15713;DHT22;7957;51.608;6.916;2023-07-20T02:03:50;18.10;99.90
15713;DHT22;7957;51.608;6.916;2023-07-20T02:06:19;18.10;99.90
15713;DHT22;7957;51.608;6.916;2023-07-20T02:08:46;18.00;99.90
15713;DHT22;7957;51.608;6.916;2023-07-20T02:11:13;18.10;99.90
15713;DHT22;7957;51.608;6.916;2023-07-20T02:13:39;18.00;99.90
15713;DHT22;7957;51.608;6.916;2023-07-20T02:16:06;18.00;99.90
15713;DHT22;7957;51.608;6.916;2023-07-20T02:18:33;18.00;1.00
15713;DHT22;7957;51.608;6.916;2023-07-20T02:21:00;18.00;1.00
15713;DHT22;7957;51.608;6.916;2023-07-20T02:23:29;18.00;1.00
15713;DHT22;7957;51.608;6.916;2023-07-20T02:25:56;18.00;1.00
15713;DHT22;7957;51.608;6.916;2023-07-20T02:28:23;18.00;1.00
15713;DHT22;7957;51.608;6.916;2023-07-20T02:30:51;18.00;1.00
15713;DHT22;7957;51.608;6.916;2023-07-20T02:33:19;18.00;1.00
15713;DHT22;7957;51.608;6.916;2023-07-20T02:35:47;18.00;1.00
15713;DHT22;7957;51.608;6.916;2023-07-20T02:38:16;18.00;1.00
15713;DHT22;7957;51.608;6.916;2023-07-20T02:40:44;18.00;1.00
15713;DHT22;7957;51.608;6.916;2023-07-20T02:43:11;17.90;1.00
15713;DHT22;7957;51.608;6.916;2023-07-20T02:45:40;17.90;41.10
15713;DHT22;7957;51.608;6.916;2023-07-20T02:48:08;17.90;94.60
15713;DHT22;7957;51.608;6.916;2023-07-20T02:50:35;17.90;99.90
15713;DHT22;7957;51.608;6.916;2023-07-20T02:53:02;17.90;99.90
15713;DHT22;7957;51.608;6.916;2023-07-20T02:55:29;17.90;99.90
15713;DHT22;7957;51.608;6.916;2023-07-20T02:57:57;17.90;99.90
15713;DHT22;7957;51.608;6.916;2023-07-20T03:00:24;17.90;99.90
15713;DHT22;7957;51.608;6.916;2023-07-20T03:02:51;17.90;99.90
15713;DHT22;7957;51.608;6.916;2023-07-20T03:05:21;17.90;1.00
15713;DHT22;7957;51.608;6.916;2023-07-20T03:07:49;17.90;1.00
15713;DHT22;7957;51.608;6.916;2023-07-20T03:10:16;17.90;1.00
15713;DHT22;7957;51.608;6.916;2023-07-20T03:12:43;17.80;1.00
15713;DHT22;7957;51.608;6.916;2023-07-20T03:15:11;17.80;1.00
15713;DHT22;7957;51.608;6.916;2023-07-20T03:17:38;17.80;1.00
15713;DHT22;7957;51.608;6.916;2023-07-20T03:20:06;17.90;1.00
15713;DHT22;7957;51.608;6.916;2023-07-20T03:22:35;17.80;1.00
15713;DHT22;7957;51.608;6.916;2023-07-20T03:25:02;17.80;1.00
15713;DHT22;7957;51.608;6.916;2023-07-20T03:27:30;17.80;70.50
15713;DHT22;7957;51.608;6.916;2023-07-20T03:29:57;17.80;99.90
15713;DHT22;7957;51.608;6.916;2023-07-20T03:32:25;17.80;99.90
15713;DHT22;7957;51.608;6.916;2023-07-20T03:34:52;17.80;99.90
15713;DHT22;7957;51.608;6.916;2023-07-20T03:37:18;17.80;99.90
15713;DHT22;7957;51.608;6.916;2023-07-20T03:39:45;17.80;99.90
15713;DHT22;7957;51.608;6.916;2023-07-20T03:42:12;17.80;99.90
15713;DHT22;7957;51.608;6.916;2023-07-20T03:44:39;17.80;1.00
15713;DHT22;7957;51.608;6.916;2023-07-20T03:47:06;17.80;1.00
15713;DHT22;7957;51.608;6.916;2023-07-20T03:49:34;17.70;1.00
15713;DHT22;7957;51.608;6.916;2023-07-20T03:52:02;17.70;1.00
15713;DHT22;7957;51.608;6.916;2023-07-20T03:54:30;17.70;1.00
15713;DHT22;7957;51.608;6.916;2023-07-20T03:56:56;17.70;1.00
15713;DHT22;7957;51.608;6.916;2023-07-20T03:59:23;17.70;1.00
15713;DHT22;7957;51.608;6.916;2023-07-20T04:01:50;17.70;1.00
15713;DHT22;7957;51.608;6.916;2023-07-20T04:04:17;17.70;1.00
15713;DHT22;7957;51.608;6.916;2023-07-20T04:06:46;17.70;1.00
15713;DHT22;7957;51.608;6.916;2023-07-20T04:09:13;17.70;1.00
15713;DHT22;7957;51.608;6.916;2023-07-20T04:11:40;17.70;1.00
15713;DHT22;7957;51.608;6.916;2023-07-20T04:14:07;17.70;17.60
15713;DHT22;7957;51.608;6.916;2023-07-20T04:16:34;17.70;36.90
15713;DHT22;7957;51.608;6.916;2023-07-20T04:19:01;17.70;58.90
15713;DHT22;7957;51.608;6.916;2023-07-20T04:21:27;17.70;90.10
15713;DHT22;7957;51.608;6.916;2023-07-20T04:23:56;17.70;99.90
15713;DHT22;7957;51.608;6.916;2023-07-20T04:26:23;17.70;99.90
15713;DHT22;7957;51.608;6.916;2023-07-20T04:28:50;17.70;99.90
15713;DHT22;7957;51.608;6.916;2023-07-20T04:31:18;17.60;99.90
15713;DHT22;7957;51.608;6.916;2023-07-20T04:33:45;17.60;99.90
15713;DHT22;7957;51.608;6.916;2023-07-20T04:36:12;17.60;99.90
15713;DHT22;7957;51.608;6.916;2023-07-20T04:38:41;17.60;99.90
15713;DHT22;7957;51.608;6.916;2023-07-20T04:41:10;17.60;99.90
15713;DHT22;7957;51.608;6.916;2023-07-20T04:43:41;17.60;99.90
15713;DHT22;7957;51.608;6.916;2023-07-20T04:46:08;17.60;99.90
15713;DHT22;7957;51.608;6.916;2023-07-20T04:48:35;17.60;99.90
15713;DHT22;7957;51.608;6.916;2023-07-20T04:51:03;17.70;99.90
15713;DHT22;7957;51.608;6.916;2023-07-20T04:53:30;17.60;99.90
15713;DHT22;7957;51.608;6.916;2023-07-20T04:55:57;17.60;99.90
15713;DHT22;7957;51.608;6.916;2023-07-20T04:58:26;17.60;99.90
15713;DHT22;7957;51.608;6.916;2023-07-20T05:00:53;17.60;99.90
15713;DHT22;7957;51.608;6.916;2023-07-20T05:03:20;17.60;99.90
15713;DHT22;7957;51.608;6.916;2023-07-20T05:05:47;17.60;99.90
15713;DHT22;7957;51.608;6.916;2023-07-20T05:08:14;17.60;99.90
15713;DHT22;7957;51.608;6.916;2023-07-20T05:10:42;17.70;99.90
15713;DHT22;7957;51.608;6.916;2023-07-20T05:13:08;17.70;99.90
15713;DHT22;7957;51.608;6.916;2023-07-20T05:15:37;17.70;99.90
15713;DHT22;7957;51.608;6.916;2023-07-20T05:18:04;17.60;99.90
15713;DHT22;7957;51.608;6.916;2023-07-20T05:20:31;17.70;99.90
15713;DHT22;7957;51.608;6.916;2023-07-20T05:22:58;17.60;99.90
15713;DHT22;7957;51.608;6.916;2023-07-20T05:25:26;17.60;99.90
15713;DHT22;7957;51.608;6.916;2023-07-20T05:27:53;17.70;99.90
15713;DHT22;7957;51.608;6.916;2023-07-20T05:30:21;17.70;99.90
15713;DHT22;7957;51.608;6.916;2023-07-20T05:32:49;17.60;99.90
15713;DHT22;7957;51.608;6.916;2023-07-20T05:35:17;17.60;99.90
15713;DHT22;7957;51.608;6.916;2023-07-20T05:37:45;17.60;99.90
15713;DHT22;7957;51.608;6.916;2023-07-20T05:40:13;17.60;99.90
15713;DHT22;7957;51.608;6.916;2023-07-20T05:42:44;17.60;99.90
15713;DHT22;7957;51.608;6.916;2023-07-20T05:45:11;17.60;99.90
15713;DHT22;7957;51.608;6.916;2023-07-20T05:47:39;17.60;99.90
15713;DHT22;7957;51.608;6.916;2023-07-20T05:50:08;17.60;99.90
15713;DHT22;7957;51.608;6.916;2023-07-20T05:52:35;17.60;99.90
15713;DHT22;7957;51.608;6.916;2023-07-20T05:55:05;17.70;99.90
15713;DHT22;7957;51.608;6.916;2023-07-20T05:57:32;17.70;99.90
15713;DHT22;7957;51.608;6.916;2023-07-20T05:59:59;17.80;99.90
15713;DHT22;7957;51.608;6.916;2023-07-20T06:02:25;17.70;99.90
15713;DHT22;7957;51.608;6.916;2023-07-20T06:04:52;17.80;99.90
15713;DHT22;7957;51.608;6.916;2023-07-20T06:07:22;17.80;99.90
15713;DHT22;7957;51.608;6.916;2023-07-20T06:09:49;17.80;99.90
15713;DHT22;7957;51.608;6.916;2023-07-20T06:12:16;17.80;99.90
15713;DHT22;7957;51.608;6.916;2023-07-20T06:14:43;17.90;99.90
15713;DHT22;7957;51.608;6.916;2023-07-20T06:17:10;17.90;99.90
15713;DHT22;7957;51.608;6.916;2023-07-20T06:19:37;17.90;99.90
15713;DHT22;7957;51.608;6.916;2023-07-20T06:22:04;17.90;99.90
15713;DHT22;7957;51.608;6.916;2023-07-20T06:24:33;17.90;99.90
15713;DHT22;7957;51.608;6.916;2023-07-20T06:27:00;18.00;99.90
15713;DHT22;7957;51.608;6.916;2023-07-20T06:29:28;17.90;99.90
15713;DHT22;7957;51.608;6.916;2023-07-20T06:31:54;17.90;99.90
15713;DHT22;7957;51.608;6.916;2023-07-20T06:34:21;17.90;99.90
15713;DHT22;7957;51.608;6.916;2023-07-20T06:36:48;17.90;99.90
15713;DHT22;7957;51.608;6.916;2023-07-20T06:39:15;18.00;99.90
15713;DHT22;7957;51.608;6.916;2023-07-20T06:41:44;18.00;99.90
15713;DHT22;7957;51.608;6.916;2023-07-20T06:44:11;18.00;99.90
15713;DHT22;7957;51.608;6.916;2023-07-20T06:46:39;18.00;99.90
15713;DHT22;7957;51.608;6.916;2023-07-20T06:49:06;18.00;99.90
15713;DHT22;7957;51.608;6.916;2023-07-20T06:51:34;18.00;99.90
15713;DHT22;7957;51.608;6.916;2023-07-20T06:54:01;18.00;99.90
15713;DHT22;7957;51.608;6.916;2023-07-20T06:56:30;18.00;99.90
15713;DHT22;7957;51.608;6.916;2023-07-20T06:58:58;18.10;99.90
15713;DHT22;7957;51.608;6.916;2023-07-20T07:01:25;18.10;99.90
15713;DHT22;7957;51.608;6.916;2023-07-20T07:03:52;18.10;99.90
15713;DHT22;7957;51.608;6.916;2023-07-20T07:06:19;18.10;99.90
15713;DHT22;7957;51.608;6.916;2023-07-20T07:08:46;18.10;99.90
15713;DHT22;7957;51.608;6.916;2023-07-20T07:11:13;18.10;99.90
15713;DHT22;7957;51.608;6.916;2023-07-20T07:13:40;18.20;99.90
15713;DHT22;7957;51.608;6.916;2023-07-20T07:16:08;18.20;99.90
15713;DHT22;7957;51.608;6.916;2023-07-20T07:18:35;18.30;99.90
15713;DHT22;7957;51.608;6.916;2023-07-20T07:21:02;18.30;99.90
15713;DHT22;7957;51.608;6.916;2023-07-20T07:23:29;18.40;90.30
15713;DHT22;7957;51.608;6.916;2023-07-20T07:25:56;18.50;35.80
15713;DHT22;7957;51.608;6.916;2023-07-20T07:28:22;18.50;1.00
15713;DHT22;7957;51.608;6.916;2023-07-20T07:30:49;18.60;1.00
15713;DHT22;7957;51.608;6.916;2023-07-20T07:33:17;18.70;1.00
15713;DHT22;7957;51.608;6.916;2023-07-20T07:35:44;18.70;1.00
15713;DHT22;7957;51.608;6.916;2023-07-20T07:38:11;18.70;1.00
15713;DHT22;7957;51.608;6.916;2023-07-20T07:40:38;18.70;99.90
15713;DHT22;7957;51.608;6.916;2023-07-20T07:43:05;18.70;99.90
15713;DHT22;7957;51.608;6.916;2023-07-20T07:45:34;18.70;99.90
15713;DHT22;7957;51.608;6.916;2023-07-20T07:48:02;18.60;1.00
15713;DHT22;7957;51.608;6.916;2023-07-20T07:50:31;18.60;1.00
15713;DHT22;7957;51.608;6.916;2023-07-20T07:52:57;18.60;1.00
15713;DHT22;7957;51.608;6.916;2023-07-20T07:55:24;18.60;1.00
15713;DHT22;7957;51.608;6.916;2023-07-20T07:57:53;18.70;1.00
15713;DHT22;7957;51.608;6.916;2023-07-20T08:00:20;18.80;1.00
15713;DHT22;7957;51.608;6.916;2023-07-20T08:02:47;18.90;1.00
15713;DHT22;7957;51.608;6.916;2023-07-20T08:05:14;19.00;99.90
15713;DHT22;7957;51.608;6.916;2023-07-20T08:07:43;19.10;99.90
15713;DHT22;7957;51.608;6.916;2023-07-20T08:10:10;19.10;31.90
15713;DHT22;7957;51.608;6.916;2023-07-20T08:12:37;19.10;1.00
15713;DHT22;7957;51.608;6.916;2023-07-20T08:15:05;19.00;1.00
15713;DHT22;7957;51.608;6.916;2023-07-20T08:17:32;18.90;1.00
15713;DHT22;7957;51.608;6.916;2023-07-20T08:19:59;18.80;99.90
15713;DHT22;7957;51.608;6.916;2023-07-20T08:22:26;18.80;99.90
15713;DHT22;7957;51.608;6.916;2023-07-20T08:24:54;18.80;99.90
15713;DHT22;7957;51.608;6.916;2023-07-20T08:27:21;19.00;99.90
15713;DHT22;7957;51.608;6.916;2023-07-20T08:29:48;19.10;99.90
15713;DHT22;7957;51.608;6.916;2023-07-20T08:32:15;19.30;99.90
15713;DHT22;7957;51.608;6.916;2023-07-20T08:34:42;19.40;95.60
15713;DHT22;7957;51.608;6.916;2023-07-20T08:37:09;19.50;1.00
15713;DHT22;7957;51.608;6.916;2023-07-20T08:39:39;19.50;1.00
15713;DHT22;7957;51.608;6.916;2023-07-20T08:42:08;19.40;1.00
15713;DHT22;7957;51.608;6.916;2023-07-20T08:44:37;19.40;1.00
15713;DHT22;7957;51.608;6.916;2023-07-20T08:47:06;19.30;1.00
15713;DHT22;7957;51.608;6.916;2023-07-20T08:49:34;19.30;1.00
15713;DHT22;7957;51.608;6.916;2023-07-20T08:52:01;19.40;99.90
15713;DHT22;7957;51.608;6.916;2023-07-20T08:54:30;19.50;99.90
15713;DHT22;7957;51.608;6.916;2023-07-20T08:57:01;19.60;99.90
15713;DHT22;7957;51.608;6.916;2023-07-20T08:59:30;19.70;99.90
15713;DHT22;7957;51.608;6.916;2023-07-20T09:01:58;19.70;99.90
15713;DHT22;7957;51.608;6.916;2023-07-20T09:04:26;19.70;63.10
15713;DHT22;7957;51.608;6.916;2023-07-20T09:06:52;19.70;1.00
15713;DHT22;7957;51.608;6.916;2023-07-20T09:09:19;19.70;1.00
15713;DHT22;7957;51.608;6.916;2023-07-20T09:11:47;19.80;1.00
15713;DHT22;7957;51.608;6.916;2023-07-20T09:14:14;19.90;1.00
15713;DHT22;7957;51.608;6.916;2023-07-20T09:16:50;20.00;1.00
15713;DHT22;7957;51.608;6.916;2023-07-20T09:19:17;20.10;1.00
15713;DHT22;7957;51.608;6.916;2023-07-20T09:21:44;20.20;1.00
15713;DHT22;7957;51.608;6.916;2023-07-20T09:24:13;20.30;1.00
15713;DHT22;7957;51.608;6.916;2023-07-20T09:26:44;20.40;99.90
15713;DHT22;7957;51.608;6.916;2023-07-20T09:29:13;20.50;99.90
15713;DHT22;7957;51.608;6.916;2023-07-20T09:31:40;20.60;99.90
15713;DHT22;7957;51.608;6.916;2023-07-20T09:34:09;20.70;99.90
15713;DHT22;7957;51.608;6.916;2023-07-20T09:36:36;20.80;99.90
15713;DHT22;7957;51.608;6.916;2023-07-20T09:39:04;20.90;99.90
15713;DHT22;7957;51.608;6.916;2023-07-20T09:41:39;21.10;88.60
15713;DHT22;7957;51.608;6.916;2023-07-20T09:44:07;21.30;10.80
15713;DHT22;7957;51.608;6.916;2023-07-20T09:46:43;21.50;1.00
15713;DHT22;7957;51.608;6.916;2023-07-20T09:49:11;21.60;1.00
15713;DHT22;7957;51.608;6.916;2023-07-20T09:51:38;21.60;1.00
15713;DHT22;7957;51.608;6.916;2023-07-20T09:54:05;21.70;1.00
15713;DHT22;7957;51.608;6.916;2023-07-20T09:56:33;21.80;1.00
15713;DHT22;7957;51.608;6.916;2023-07-20T09:59:01;21.90;1.00
15713;DHT22;7957;51.608;6.916;2023-07-20T10:01:30;22.10;1.00
15713;DHT22;7957;51.608;6.916;2023-07-20T10:04:02;22.20;1.00
15713;DHT22;7957;51.608;6.916;2023-07-20T10:06:33;22.40;99.90
15713;DHT22;7957;51.608;6.916;2023-07-20T10:09:03;22.60;99.90
15713;DHT22;7957;51.608;6.916;2023-07-20T10:11:35;22.70;99.90
15713;DHT22;7957;51.608;6.916;2023-07-20T10:14:03;22.80;99.90
15713;DHT22;7957;51.608;6.916;2023-07-20T10:16:34;22.90;99.90
15713;DHT22;7957;51.608;6.916;2023-07-20T10:19:05;23.00;99.90
15713;DHT22;7957;51.608;6.916;2023-07-20T10:21:40;23.20;30.00
15713;DHT22;7957;51.608;6.916;2023-07-20T10:24:09;23.40;1.00
15713;DHT22;7957;51.608;6.916;2023-07-20T10:26:37;23.60;1.00
15713;DHT22;7957;51.608;6.916;2023-07-20T10:29:04;23.70;1.00
15713;DHT22;7957;51.608;6.916;2023-07-20T10:31:32;24.00;1.00
15713;DHT22;7957;51.608;6.916;2023-07-20T10:34:00;24.10;1.00
15713;DHT22;7957;51.608;6.916;2023-07-20T10:36:27;24.30;1.00
15713;DHT22;7957;51.608;6.916;2023-07-20T10:38:57;24.40;1.00
15713;DHT22;7957;51.608;6.916;2023-07-20T10:41:28;24.60;1.00
15713;DHT22;7957;51.608;6.916;2023-07-20T10:44:00;24.70;1.00
15713;DHT22;7957;51.608;6.916;2023-07-20T10:46:34;24.80;1.00
15713;DHT22;7957;51.608;6.916;2023-07-20T10:49:02;24.70;99.90
15713;DHT22;7957;51.608;6.916;2023-07-20T10:51:30;24.80;99.90
15713;DHT22;7957;51.608;6.916;2023-07-20T10:54:08;25.00;99.90
15713;DHT22;7957;51.608;6.916;2023-07-20T10:56:35;25.10;99.90
15713;DHT22;7957;51.608;6.916;2023-07-20T10:59:17;25.30;99.90
15713;DHT22;7957;51.608;6.916;2023-07-20T11:01:45;25.50;99.90
15713;DHT22;7957;51.608;6.916;2023-07-20T11:04:12;25.80;99.90
15713;DHT22;7957;51.608;6.916;2023-07-20T11:06:42;25.90;99.90
15713;DHT22;7957;51.608;6.916;2023-07-20T11:09:12;26.10;89.30
15713;DHT22;7957;51.608;6.916;2023-07-20T11:11:41;26.30;35.00
15713;DHT22;7957;51.608;6.916;2023-07-20T11:14:10;26.40;1.00
15713;DHT22;7957;51.608;6.916;2023-07-20T11:16:40;26.60;1.00
15713;DHT22;7957;51.608;6.916;2023-07-20T11:19:14;26.80;1.00
15713;DHT22;7957;51.608;6.916;2023-07-20T11:21:44;26.90;1.00
15713;DHT22;7957;51.608;6.916;2023-07-20T11:24:12;27.20;1.00
15713;DHT22;7957;51.608;6.916;2023-07-20T11:26:41;27.20;1.00
15713;DHT22;7957;51.608;6.916;2023-07-20T11:29:08;27.40;1.00
15713;DHT22;7957;51.608;6.916;2023-07-20T11:31:36;27.50;1.00
15713;DHT22;7957;51.608;6.916;2023-07-20T11:34:03;27.70;1.00
15713;DHT22;7957;51.608;6.916;2023-07-20T11:36:30;27.90;1.00
15713;DHT22;7957;51.608;6.916;2023-07-20T11:38:57;28.10;99.90
15713;DHT22;7957;51.608;6.916;2023-07-20T11:41:26;28.30;99.90
15713;DHT22;7957;51.608;6.916;2023-07-20T11:43:54;28.50;99.90
15713;DHT22;7957;51.608;6.916;2023-07-20T11:46:21;28.60;99.90
15713;DHT22;7957;51.608;6.916;2023-07-20T11:48:48;28.80;99.90
15713;DHT22;7957;51.608;6.916;2023-07-20T11:51:15;28.90;99.90
15713;DHT22;7957;51.608;6.916;2023-07-20T11:53:44;29.10;99.90
15713;DHT22;7957;51.608;6.916;2023-07-20T11:56:11;29.20;99.90
15713;DHT22;7957;51.608;6.916;2023-07-20T11:58:43;29.40;99.90
15713;DHT22;7957;51.608;6.916;2023-07-20T12:01:12;29.50;93.50
15713;DHT22;7957;51.608;6.916;2023-07-20T12:03:39;29.30;30.00
15713;DHT22;7957;51.608;6.916;2023-07-20T12:06:07;29.10;1.00
15713;DHT22;7957;51.608;6.916;2023-07-20T12:08:34;29.00;1.00
15713;DHT22;7957;51.608;6.916;2023-07-20T12:11:01;29.10;1.00
15713;DHT22;7957;51.608;6.916;2023-07-20T12:13:38;29.20;1.00
15713;DHT22;7957;51.608;6.916;2023-07-20T12:16:15;29.40;1.00
15713;DHT22;7957;51.608;6.916;2023-07-20T12:18:43;29.50;1.00
15713;DHT22;7957;51.608;6.916;2023-07-20T12:21:11;29.50;1.00
15713;DHT22;7957;51.608;6.916;2023-07-20T12:23:39;29.60;1.00
15713;DHT22;7957;51.608;6.916;2023-07-20T12:26:07;29.70;1.00
15713;DHT22;7957;51.608;6.916;2023-07-20T12:28:38;29.60;1.00
15713;DHT22;7957;51.608;6.916;2023-07-20T12:31:06;29.30;1.00
15713;DHT22;7957;51.608;6.916;2023-07-20T12:33:35;29.10;1.00
15713;DHT22;7957;51.608;6.916;2023-07-20T12:36:02;29.10;1.00
15713;DHT22;7957;51.608;6.916;2023-07-20T12:38:29;29.00;1.00
15713;DHT22;7957;51.608;6.916;2023-07-20T12:40:56;28.70;1.00
15713;DHT22;7957;51.608;6.916;2023-07-20T12:43:24;28.40;1.00
15713;DHT22;7957;51.608;6.916;2023-07-20T12:45:54;28.30;99.90
15713;DHT22;7957;51.608;6.916;2023-07-20T12:48:38;28.30;99.90
15713;DHT22;7957;51.608;6.916;2023-07-20T12:51:07;28.40;99.90
15713;DHT22;7957;51.608;6.916;2023-07-20T12:53:34;28.50;99.90
15713;DHT22;7957;51.608;6.916;2023-07-20T12:56:02;28.60;99.90
15713;DHT22;7957;51.608;6.916;2023-07-20T12:58:29;28.80;99.90
15713;DHT22;7957;51.608;6.916;2023-07-20T13:00:55;28.70;99.90
15713;DHT22;7957;51.608;6.916;2023-07-20T13:03:22;28.70;99.90
15713;DHT22;7957;51.608;6.916;2023-07-20T13:05:51;28.40;99.90
15713;DHT22;7957;51.608;6.916;2023-07-20T13:08:18;28.30;99.90
15713;DHT22;7957;51.608;6.916;2023-07-20T13:10:45;28.00;99.90
15713;DHT22;7957;51.608;6.916;2023-07-20T13:13:12;27.20;99.90
15713;DHT22;7957;51.608;6.916;2023-07-20T13:15:44;26.80;99.90
15713;DHT22;7957;51.608;6.916;2023-07-20T13:18:11;26.50;99.90
15713;DHT22;7957;51.608;6.916;2023-07-20T13:20:38;26.30;99.90
15713;DHT22;7957;51.608;6.916;2023-07-20T13:23:07;26.30;99.90
15713;DHT22;7957;51.608;6.916;2023-07-20T13:25:34;26.90;99.90
15713;DHT22;7957;51.608;6.916;2023-07-20T13:28:24;27.20;99.90
15713;DHT22;7957;51.608;6.916;2023-07-20T13:30:53;27.30;99.90
15713;DHT22;7957;51.608;6.916;2023-07-20T13:33:19;27.30;99.90
15713;DHT22;7957;51.608;6.916;2023-07-20T13:35:46;27.20;99.80
15713;DHT22;7957;51.608;6.916;2023-07-20T13:38:15;27.00;92.00
15713;DHT22;7957;51.608;6.916;2023-07-20T13:40:41;26.90;83.10
15713;DHT22;7957;51.608;6.916;2023-07-20T13:43:09;26.80;69.70
15713;DHT22;7957;51.608;6.916;2023-07-20T13:45:36;26.60;59.50
15713;DHT22;7957;51.608;6.916;2023-07-20T13:48:03;26.50;48.70
15713;DHT22;7957;51.608;6.916;2023-07-20T13:50:30;26.40;42.40
15713;DHT22;7957;51.608;6.916;2023-07-20T13:52:57;26.30;36.40
15713;DHT22;7957;51.608;6.916;2023-07-20T13:55:25;26.30;37.90
15713;DHT22;7957;51.608;6.916;2023-07-20T13:57:53;26.20;40.50
15713;DHT22;7957;51.608;6.916;2023-07-20T14:00:20;26.30;46.50
15713;DHT22;7957;51.608;6.916;2023-07-20T14:02:47;26.40;47.60
15713;DHT22;7957;51.608;6.916;2023-07-20T14:05:14;26.60;45.00
15713;DHT22;7957;51.608;6.916;2023-07-20T14:07:41;26.70;44.60
15713;DHT22;7957;51.608;6.916;2023-07-20T14:10:09;26.90;57.90
15713;DHT22;7957;51.608;6.916;2023-07-20T14:12:37;27.00;39.10
15713;DHT22;7957;51.608;6.916;2023-07-20T14:15:05;27.10;30.30
15713;DHT22;7957;51.608;6.916;2023-07-20T14:17:32;27.10;23.60
15713;DHT22;7957;51.608;6.916;2023-07-20T14:19:59;27.10;10.10
15713;DHT22;7957;51.608;6.916;2023-07-20T14:22:26;27.00;3.50
15713;DHT22;7957;51.608;6.916;2023-07-20T14:24:53;27.00;1.00
15713;DHT22;7957;51.608;6.916;2023-07-20T14:27:20;26.80;1.00
15713;DHT22;7957;51.608;6.916;2023-07-20T14:29:48;26.80;1.00
15713;DHT22;7957;51.608;6.916;2023-07-20T14:32:15;26.60;1.00
15713;DHT22;7957;51.608;6.916;2023-07-20T14:34:42;26.50;1.00
15713;DHT22;7957;51.608;6.916;2023-07-20T14:37:09;26.30;1.00
15713;DHT22;7957;51.608;6.916;2023-07-20T14:39:36;26.10;1.00
15713;DHT22;7957;51.608;6.916;2023-07-20T14:42:03;26.10;1.00
15713;DHT22;7957;51.608;6.916;2023-07-20T14:44:30;25.90;1.00
15713;DHT22;7957;51.608;6.916;2023-07-20T14:46:59;25.80;1.00
15713;DHT22;7957;51.608;6.916;2023-07-20T14:49:26;25.80;1.00
15713;DHT22;7957;51.608;6.916;2023-07-20T14:51:53;25.70;1.00
15713;DHT22;7957;51.608;6.916;2023-07-20T14:54:21;25.70;1.00
15713;DHT22;7957;51.608;6.916;2023-07-20T14:56:50;25.80;1.00
15713;DHT22;7957;51.608;6.916;2023-07-20T14:59:18;25.80;1.00
15713;DHT22;7957;51.608;6.916;2023-07-20T15:01:46;25.80;1.00
15713;DHT22;7957;51.608;6.916;2023-07-20T15:04:15;25.90;1.00
15713;DHT22;7957;51.608;6.916;2023-07-20T15:06:44;26.00;1.00
15713;DHT22;7957;51.608;6.916;2023-07-20T15:09:11;26.00;1.00
15713;DHT22;7957;51.608;6.916;2023-07-20T15:11:41;26.10;1.00
15713;DHT22;7957;51.608;6.916;2023-07-20T15:14:09;26.10;1.00
15713;DHT22;7957;51.608;6.916;2023-07-20T15:16:35;26.10;1.00
15713;DHT22;7957;51.608;6.916;2023-07-20T15:19:02;26.00;1.00
15713;DHT22;7957;51.608;6.916;2023-07-20T15:21:31;25.90;1.00
15713;DHT22;7957;51.608;6.916;2023-07-20T15:23:58;25.90;1.00
15713;DHT22;7957;51.608;6.916;2023-07-20T15:26:25;25.90;1.00
15713;DHT22;7957;51.608;6.916;2023-07-20T15:28:52;25.80;1.00
15713;DHT22;7957;51.608;6.916;2023-07-20T15:31:19;25.70;1.00
15713;DHT22;7957;51.608;6.916;2023-07-20T15:33:46;25.60;1.00
15713;DHT22;7957;51.608;6.916;2023-07-20T15:36:13;25.50;1.00
15713;DHT22;7957;51.608;6.916;2023-07-20T15:38:42;25.40;1.00
15713;DHT22;7957;51.608;6.916;2023-07-20T15:41:08;25.30;1.00
15713;DHT22;7957;51.608;6.916;2023-07-20T15:43:36;25.20;1.00
15713;DHT22;7957;51.608;6.916;2023-07-20T15:49:07;25.00;1.00
15713;DHT22;7957;51.608;6.916;2023-07-20T15:51:36;25.00;1.00
15713;DHT22;7957;51.608;6.916;2023-07-20T15:54:05;24.90;1.00
15713;DHT22;7957;51.608;6.916;2023-07-20T15:56:33;24.90;1.00
15713;DHT22;7957;51.608;6.916;2023-07-20T15:58:59;24.90;1.00
15713;DHT22;7957;51.608;6.916;2023-07-20T16:01:27;24.90;1.00